Corlu, Turkey

11:30 AM EEST on August 30, 2014 (GMT +0300)
Corlu Air Base | Change Station
CLOSE
Current Station
Airport
Location: Corlu,
Elevation: 568 ft
Nearby Weather Stations

Elev 568 ft 41.14 °N, 27.92 °E | Updated 10 minutes ago

Mostly Cloudy
Mostly Cloudy
75 °F
Feels Like 75 °F
N
22
Wind Variable Wind from NNE

Today
High -- | Low -- °F
--% Chance of Precip.
Yesterday
High -- | Low -- °F
Precip. -- in
6:32 AM 7:44 PM
Waxing Crescent, 20% visible
Pressure 30.06 in
Visibility 6.2 miles
Clouds Scattered Clouds 3000 ft
Mostly Cloudy 10000 ft
Dew Point 59 °F
Humidity 57%
Rainfall 0.00 in
Snow Depth Not available.
UV 3 out of 12
Pollen Not available.
Air Quality Not available.
Flu Activity Not available.
METAR LTBU 300820Z 03019KT 9999 SCT030 BKN100 24/15 Q1018

More Conditions Fewer Conditions

Pressure 30.06 in
Visibility 6.2 miles
Clouds Scattered Clouds 3000 ft
Mostly Cloudy 10000 ft
Dew Point 59 °F
Humidity 57%
Rainfall 0.00 in
Snow Depth Not available.
UV 3 out of 12
Pollen Not available.
Air Quality Not available.
Flu Activity Not available.
METAR LTBU 300820Z 03019KT 9999 SCT030 BKN100 24/15 Q1018

More Conditions Fewer Conditions

10-Day Weather Forecast

Almanac

Astronomy

Aug. 30, 2014 Rise Set
Actual Time 6:32 AM EEST 7:44 PM EEST
Civil Twilight 6:04 AM EEST 8:13 PM EEST
Nautical Twilight 5:30 AM EEST 8:47 PM EEST
Astronomical Twilight 4:54 AM EEST 9:22 PM EEST
Moon 11:03 AM EEST 10:03 PM EEST
Length of Visible Light 14h 08m
Length of Day
13h 12m
Tomorrow will be 2m 37s shorter.
Waxing Crescent, 20% of the Moon is Illuminated
Today
Waxing Crescent
Sep 2
First Quarter
Sep 8
Full
Sep 15
Last Quarter
Sep 24
New

Yesterday's Extremes

Country Highs Country Lows

Community

WunderPhotos

Upload Photos

1,748,472 photos uploaded!

Nearby

Snow Depth

Not available.

Earthquake Activity

City Distance Mag. Time & Date
No recent earthquake activity has been reported nearby.
Minimum magnitude displayed is 2.5.

Coastal Water Temperatures

Place Temperature
No Stations Reporting

Nearby Weather Stations